Terminal Aerodrome Forecast
Issued by NWS

Current Version | Previous Version | Text Only | Print | Product List | Glossary On
Versions: 1 2 3 4 5 6 7 8 9 10 11 12 13 14 15 16 17 18 19 20 21 22 23 24 25 26 27 28 29
687
FTUS42 KCAE 041740
TAFDNL
TAF
KDNL 041740Z 0418/0518 29011G19KT P6SM FEW050
     FM042300 26007KT P6SM SCT080
     FM051000 28010G18KT P6SM SCT080=

USA.gov is the U.S. government's official web portal to all federal, state and local government web resources and services.